createdAt,value
2022-10-07T00:02:19.254Z,14.22
2022-10-07T00:04:46.473Z,14.19
2022-10-07T00:07:15.188Z,14.15
2022-10-07T00:09:43.504Z,14.15
2022-10-07T00:12:10.532Z,14.13
2022-10-07T00:14:37.479Z,14.16
2022-10-07T00:17:04.393Z,14.19
2022-10-07T00:19:31.887Z,14.24
2022-10-07T00:21:58.796Z,14.28
2022-10-07T00:24:25.878Z,14.32
2022-10-07T00:26:54.398Z,14.34
2022-10-07T00:29:24.166Z,14.32
2022-10-07T00:31:56.943Z,14.32
2022-10-07T00:34:25.063Z,14.32
2022-10-07T00:36:52.225Z,14.35
2022-10-07T00:39:19.190Z,14.38
2022-10-07T00:41:50.408Z,14.42
2022-10-07T00:44:39.586Z,14.43
2022-10-07T00:47:12.398Z,14.42
2022-10-07T00:49:42.751Z,14.40
2022-10-07T00:52:09.563Z,14.42
2022-10-07T00:54:37.626Z,14.43
2022-10-07T00:57:04.992Z,14.46
2022-10-07T00:59:33.393Z,14.52
2022-10-07T01:02:01.572Z,14.57
2022-10-07T01:04:28.769Z,14.56
2022-10-07T01:06:56.051Z,14.53
2022-10-07T01:09:23.076Z,14.58
2022-10-07T01:11:59.359Z,14.62
2022-10-07T01:14:40.131Z,14.59
2022-10-07T01:17:13.762Z,14.53
2022-10-07T01:20:06.275Z,14.58
2022-10-07T01:22:46.608Z,14.54
2022-10-07T01:25:28.510Z,14.53
2022-10-07T01:28:01.433Z,14.54
2022-10-07T01:30:31.924Z,14.56
2022-10-07T01:33:04.387Z,14.61
2022-10-07T01:35:35.640Z,14.67
2022-10-07T01:38:10.964Z,14.72
2022-10-07T01:40:44.213Z,14.76
2022-10-07T01:43:15.944Z,14.77
2022-10-07T01:45:43.249Z,14.83
2022-10-07T01:48:10.309Z,14.85
2022-10-07T01:50:39.079Z,14.86
2022-10-07T01:53:31.364Z,14.93
2022-10-07T01:56:13.150Z,14.93
2022-10-07T01:59:13.404Z,14.90
2022-10-07T02:01:47.442Z,14.87
2022-10-07T02:04:32.256Z,14.87
2022-10-07T02:07:09.563Z,14.87
2022-10-07T02:09:40.462Z,14.90
2022-10-07T02:12:15.463Z,14.95
2022-10-07T02:14:54.712Z,14.99
2022-10-07T02:17:28.598Z,15.01
2022-10-07T02:19:56.839Z,15.04
2022-10-07T02:22:28.434Z,15.10
2022-10-07T02:24:59.152Z,15.11
2022-10-07T02:27:31.283Z,15.10
2022-10-07T02:30:04.539Z,15.12
2022-10-07T02:32:36.225Z,15.12
2022-10-07T02:35:10.840Z,15.15
2022-10-07T02:37:38.594Z,15.17
2022-10-07T02:40:12.198Z,15.16
2022-10-07T02:42:48.249Z,15.17
2022-10-07T02:45:26.451Z,15.18
2022-10-07T02:47:59.350Z,15.20
2022-10-07T02:50:35.424Z,15.22
2022-10-07T02:53:04.244Z,15.24
2022-10-07T02:55:32.522Z,15.26
2022-10-07T02:58:01.970Z,15.25
2022-10-07T03:00:34.885Z,15.24
2022-10-07T03:03:05.148Z,15.25
2022-10-07T03:05:53.503Z,15.23
2022-10-07T03:08:21.929Z,15.24
2022-10-07T03:10:49.865Z,15.25
2022-10-07T03:13:17.332Z,15.27
2022-10-07T03:15:49.258Z,15.28
2022-10-07T03:18:28.176Z,15.31
2022-10-07T03:21:08.691Z,15.31
2022-10-07T03:23:35.658Z,15.32
2022-10-07T03:26:02.385Z,15.33
2022-10-07T03:28:35.203Z,15.36
2022-10-07T03:31:07.018Z,15.36
2022-10-07T03:33:37.317Z,15.37
2022-10-07T03:36:08.226Z,15.39
2022-10-07T03:38:36.209Z,15.39
2022-10-07T03:41:04.560Z,15.37
2022-10-07T03:43:31.457Z,15.35
2022-10-07T03:46:02.214Z,15.32
2022-10-07T03:48:30.853Z,15.29
2022-10-07T03:50:59.628Z,15.25
2022-10-07T03:53:29.663Z,15.20
2022-10-07T03:55:58.027Z,15.13
2022-10-07T03:58:24.858Z,15.09
2022-10-07T04:00:52.090Z,15.08
2022-10-07T04:03:18.979Z,15.09
2022-10-07T04:05:55.787Z,15.05
2022-10-07T04:08:27.900Z,15.03
2022-10-07T04:10:55.279Z,15.02
2022-10-07T04:13:22.104Z,15.01
2022-10-07T04:15:49.366Z,14.95
2022-10-07T04:18:16.825Z,14.90
2022-10-07T04:20:43.743Z,14.87
2022-10-07T04:23:12.479Z,14.84
2022-10-07T04:25:43.826Z,14.83
2022-10-07T04:28:17.348Z,14.84
2022-10-07T04:30:51.028Z,14.83
2022-10-07T04:33:21.492Z,14.84
2022-10-07T04:35:50.387Z,14.84
2022-10-07T04:38:18.400Z,14.82
2022-10-07T04:40:50.040Z,14.84
2022-10-07T04:43:26.871Z,14.90
2022-10-07T04:46:06.546Z,14.90
2022-10-07T04:48:36.414Z,14.92
2022-10-07T04:51:05.101Z,14.92
2022-10-07T04:53:32.269Z,14.92
2022-10-07T04:56:00.923Z,14.92
2022-10-07T04:58:28.949Z,14.92
2022-10-07T05:00:57.365Z,14.91
2022-10-07T05:03:26.734Z,14.89
2022-10-07T05:05:54.943Z,14.85
2022-10-07T05:08:24.736Z,14.83
2022-10-07T05:10:56.388Z,14.84
2022-10-07T05:13:26.463Z,14.87
2022-10-07T05:15:55.986Z,14.89
2022-10-07T05:18:25.139Z,14.92
2022-10-07T05:20:53.080Z,14.97
2022-10-07T05:23:27.288Z,15.03
2022-10-07T05:25:58.458Z,15.07
2022-10-07T05:28:27.597Z,15.10
2022-10-07T05:31:02.602Z,15.13
2022-10-07T05:33:31.588Z,15.12
2022-10-07T05:35:59.137Z,15.10
2022-10-07T05:38:26.842Z,15.08
2022-10-07T05:40:59.750Z,15.10
2022-10-07T05:43:33.372Z,15.13
2022-10-07T05:46:01.769Z,15.13
2022-10-07T05:48:36.586Z,15.09
2022-10-07T05:51:06.163Z,15.05
2022-10-07T05:53:32.826Z,15.04
2022-10-07T05:56:04.332Z,15.02
2022-10-07T05:58:34.951Z,15.02
2022-10-07T06:01:11.443Z,15.03
2022-10-07T06:03:40.726Z,15.05
2022-10-07T06:06:08.972Z,15.05
2022-10-07T06:08:35.995Z,15.07
2022-10-07T06:11:23.247Z,15.09
2022-10-07T06:13:53.910Z,15.12
2022-10-07T06:16:21.950Z,15.17
2022-10-07T06:18:50.576Z,15.20
2022-10-07T06:21:20.205Z,15.21
2022-10-07T06:23:51.637Z,15.19
2022-10-07T06:26:22.058Z,15.14
2022-10-07T06:28:49.053Z,15.07
2022-10-07T06:31:25.106Z,15.01
2022-10-07T06:33:57.005Z,14.94
2022-10-07T06:36:24.075Z,14.90
2022-10-07T06:38:55.316Z,14.86
2022-10-07T06:41:27.085Z,14.85
2022-10-07T06:44:06.243Z,14.82
2022-10-07T06:46:35.613Z,14.85
2022-10-07T06:49:02.745Z,14.92
2022-10-07T06:51:30.141Z,14.97
2022-10-07T06:53:59.702Z,15.00
2022-10-07T06:56:27.236Z,15.03
2022-10-07T06:58:54.002Z,15.05
2022-10-07T07:01:31.293Z,15.09
2022-10-07T07:03:59.698Z,15.10
2022-10-07T07:06:26.487Z,15.08
2022-10-07T07:08:55.345Z,15.06
2022-10-07T07:11:37.843Z,15.02
2022-10-07T07:14:25.808Z,14.98
2022-10-07T07:16:59.905Z,14.94
2022-10-07T07:19:28.524Z,14.89
2022-10-07T07:21:56.244Z,14.86
2022-10-07T07:24:24.967Z,14.85
2022-10-07T07:26:52.391Z,14.85
2022-10-07T07:29:20.251Z,14.91
2022-10-07T07:31:54.850Z,14.97
2022-10-07T07:34:24.641Z,14.99
2022-10-07T07:36:53.640Z,15.02
2022-10-07T07:39:24.062Z,15.03
2022-10-07T07:42:03.537Z,15.07
2022-10-07T07:44:34.081Z,15.10
2022-10-07T07:47:03.355Z,15.10
2022-10-07T07:49:32.224Z,15.07
2022-10-07T07:52:00.785Z,15.05
2022-10-07T07:54:32.473Z,15.08
2022-10-07T07:56:59.776Z,15.12
2022-10-07T07:59:31.118Z,15.17
2022-10-07T08:01:58.570Z,15.20
2022-10-07T08:04:25.953Z,15.19
2022-10-07T08:06:53.752Z,15.20
2022-10-07T08:09:22.409Z,15.24
2022-10-07T08:11:49.421Z,15.32
2022-10-07T08:14:17.604Z,15.41
2022-10-07T08:16:47.472Z,15.47
2022-10-07T08:19:15.516Z,15.55
2022-10-07T08:21:42.512Z,15.64
2022-10-07T08:24:15.534Z,15.72
2022-10-07T08:26:43.687Z,15.82
2022-10-07T08:29:13.571Z,15.86
2022-10-07T08:31:42.747Z,15.90
2022-10-07T08:34:11.091Z,15.94
2022-10-07T08:36:38.225Z,16.00
2022-10-07T08:39:05.449Z,16.05
2022-10-07T08:41:47.404Z,16.11
2022-10-07T08:44:23.659Z,16.14
2022-10-07T08:46:57.183Z,16.16
2022-10-07T08:49:36.472Z,16.19
2022-10-07T08:52:15.359Z,16.24
2022-10-07T08:54:42.017Z,16.33
2022-10-07T08:57:16.926Z,16.42
2022-10-07T08:59:50.221Z,16.46
2022-10-07T09:02:28.537Z,16.51
2022-10-07T09:05:05.749Z,16.54
2022-10-07T09:07:35.852Z,16.56
2022-10-07T09:10:15.507Z,16.58
2022-10-07T09:12:49.169Z,16.65
2022-10-07T09:15:19.790Z,16.73
2022-10-07T09:17:54.594Z,16.87
2022-10-07T09:20:26.755Z,17.21
2022-10-07T09:22:57.513Z,17.43
2022-10-07T09:25:26.534Z,17.55
2022-10-07T09:27:57.100Z,17.56
2022-10-07T09:30:25.918Z,17.54
2022-10-07T09:32:55.998Z,17.52
2022-10-07T09:35:24.374Z,17.52
2022-10-07T09:37:57.994Z,17.51
2022-10-07T09:40:33.876Z,17.57
2022-10-07T09:43:09.400Z,17.88
2022-10-07T09:45:37.706Z,18.29
2022-10-07T09:48:07.727Z,18.62
2022-10-07T09:50:38.063Z,18.98
2022-10-07T09:53:15.317Z,19.32
2022-10-07T09:55:43.604Z,19.61
2022-10-07T09:58:20.275Z,19.91
2022-10-07T10:00:48.885Z,20.06
2022-10-07T10:03:16.920Z,20.19
2022-10-07T10:05:53.737Z,20.45
2022-10-07T10:08:24.655Z,20.63
2022-10-07T10:10:53.588Z,20.58
2022-10-07T10:13:27.151Z,20.38
2022-10-07T10:15:54.178Z,20.22
2022-10-07T10:18:36.598Z,20.25
2022-10-07T10:21:23.616Z,20.31
2022-10-07T10:23:53.040Z,20.46
2022-10-07T10:26:37.679Z,20.72
2022-10-07T10:29:17.772Z,20.99
2022-10-07T10:31:59.823Z,21.19
2022-10-07T10:34:36.304Z,21.18
2022-10-07T10:37:14.410Z,21.08
2022-10-07T10:39:59.499Z,21.07
2022-10-07T10:42:40.060Z,20.96
2022-10-07T10:45:15.992Z,20.71
2022-10-07T10:48:06.287Z,20.78
2022-10-07T10:50:45.562Z,20.91
2022-10-07T10:53:42.384Z,21.11
2022-10-07T10:56:28.075Z,21.24
2022-10-07T11:24:12.733Z,21.44
2022-10-07T11:38:44.208Z,21.46
2022-10-07T11:44:45.997Z,21.34
2022-10-07T11:47:17.904Z,21.24
2022-10-07T11:50:14.466Z,21.22
2022-10-07T12:09:36.431Z,20.92
2022-10-07T12:12:04.644Z,20.91
2022-10-07T16:42:02.913Z,18.11
2022-10-07T16:44:30.552Z,18.09
2022-10-07T17:25:28.349Z,17.34
